createdAt,value
2018-06-21T00:00:56.882Z,89.10
2018-06-21T00:03:27.593Z,89.20
2018-06-21T00:05:58.304Z,89.30
2018-06-21T00:08:29.179Z,89.30
2018-06-21T00:10:59.827Z,89.10
2018-06-21T00:13:30.474Z,89.00
2018-06-21T00:16:01.060Z,89.00
2018-06-21T00:18:31.751Z,89.20
2018-06-21T00:21:02.330Z,89.50
2018-06-21T00:23:33.142Z,89.70
2018-06-21T00:26:03.745Z,90.00
2018-06-21T00:28:34.375Z,90.00
2018-06-21T00:31:04.981Z,90.00
2018-06-21T00:33:35.795Z,89.40
2018-06-21T00:36:06.517Z,89.80
2018-06-21T00:38:37.269Z,90.00
2018-06-21T00:41:07.938Z,90.10
2018-06-21T00:46:08.782Z,89.80
2018-06-21T00:48:41.756Z,89.30
2018-06-21T00:51:13.370Z,89.40
2018-06-21T00:53:44.305Z,89.50
2018-06-21T00:56:17.732Z,89.80
2018-06-21T00:58:49.013Z,89.50
2018-06-21T01:03:49.917Z,89.40
2018-06-21T01:06:20.619Z,89.60
2018-06-21T01:08:51.328Z,90.00
2018-06-21T01:11:21.930Z,89.90
2018-06-21T01:13:52.606Z,90.10
2018-06-21T01:16:23.233Z,90.20
2018-06-21T01:21:24.129Z,90.30
2018-06-21T01:23:54.728Z,90.20
2018-06-21T01:26:25.446Z,90.10
2018-06-21T01:31:26.449Z,90.30
2018-06-21T01:33:57.062Z,90.40
2018-06-21T01:36:27.641Z,90.60
2018-06-21T01:38:58.230Z,90.60
2018-06-21T01:41:28.845Z,90.50
2018-06-21T01:43:59.404Z,90.60
2018-06-21T01:46:30.918Z,90.60
2018-06-21T01:49:01.561Z,90.50
2018-06-21T01:51:32.150Z,90.30
2018-06-21T01:54:02.804Z,90.30
2018-06-21T01:56:33.446Z,90.40
2018-06-21T01:59:04.209Z,90.40
2018-06-21T02:01:34.805Z,90.50
2018-06-21T02:04:05.462Z,90.70
2018-06-21T02:06:36.100Z,90.80
2018-06-21T02:09:09.650Z,90.80
2018-06-21T02:11:40.410Z,90.90
2018-06-21T02:14:11.058Z,91.00
2018-06-21T02:16:41.870Z,91.00
2018-06-21T02:19:12.533Z,90.90
2018-06-21T02:21:43.177Z,90.90
2018-06-21T02:24:14.000Z,90.80
2018-06-21T02:26:44.715Z,90.90
2018-06-21T02:29:15.365Z,91.00
2018-06-21T02:31:46.233Z,91.10
2018-06-21T02:34:16.915Z,91.20
2018-06-21T02:36:47.515Z,90.90
2018-06-21T02:41:48.999Z,91.00
2018-06-21T02:44:19.586Z,91.00
2018-06-21T02:46:50.238Z,90.90
2018-06-21T02:49:20.905Z,90.70
2018-06-21T02:51:51.539Z,90.70
2018-06-21T02:54:22.615Z,90.70
2018-06-21T02:56:53.304Z,90.80
2018-06-21T02:59:23.862Z,90.90
2018-06-21T03:01:55.166Z,91.00
2018-06-21T03:04:25.830Z,91.10
2018-06-21T03:06:56.617Z,91.20
2018-06-21T03:09:27.527Z,91.20
2018-06-21T03:11:58.215Z,91.40
2018-06-21T03:14:28.886Z,91.30
2018-06-21T03:16:59.654Z,91.40
2018-06-21T03:19:30.225Z,91.50
2018-06-21T03:22:01.012Z,91.40
2018-06-21T03:24:31.897Z,91.50
2018-06-21T03:27:02.532Z,91.40
2018-06-21T03:29:33.147Z,91.40
2018-06-21T03:32:03.780Z,91.30
2018-06-21T03:34:34.454Z,91.30
2018-06-21T03:37:05.595Z,91.30
2018-06-21T03:39:36.240Z,91.40
2018-06-21T03:42:07.009Z,91.50
2018-06-21T03:44:37.965Z,91.60
2018-06-21T03:47:08.619Z,91.50
2018-06-21T03:49:39.217Z,91.50
2018-06-21T03:52:09.845Z,91.40
2018-06-21T03:57:10.650Z,91.10
2018-06-21T03:59:41.323Z,90.90
2018-06-21T04:04:42.109Z,91.00
2018-06-21T04:07:12.797Z,91.00
2018-06-21T04:09:43.459Z,91.00
2018-06-21T04:12:14.088Z,91.10
2018-06-21T04:14:44.710Z,91.20
2018-06-21T04:17:15.382Z,91.20
2018-06-21T04:19:45.984Z,91.30
2018-06-21T04:22:16.629Z,91.40
2018-06-21T04:24:47.342Z,91.30
2018-06-21T04:27:18.098Z,91.20
2018-06-21T04:29:48.712Z,91.00
2018-06-21T04:32:20.156Z,90.90
2018-06-21T04:34:51.195Z,90.80
2018-06-21T04:37:21.859Z,90.60
2018-06-21T04:39:52.523Z,90.50
2018-06-21T04:42:23.262Z,90.40
2018-06-21T04:44:54.102Z,90.20
2018-06-21T04:47:24.760Z,90.30
2018-06-21T04:49:55.469Z,90.40
2018-06-21T04:52:26.436Z,90.00
2018-06-21T04:54:57.023Z,89.10
2018-06-21T04:57:27.729Z,88.40
2018-06-21T04:59:58.440Z,88.10
2018-06-21T05:02:29.070Z,87.90
2018-06-21T05:04:59.700Z,87.70
2018-06-21T05:07:30.385Z,87.90
2018-06-21T05:10:01.344Z,87.20
2018-06-21T05:12:32.218Z,88.40
2018-06-21T05:15:03.241Z,88.60
2018-06-21T05:17:33.982Z,88.90
2018-06-21T05:20:04.569Z,88.80
2018-06-21T05:22:35.106Z,89.60
2018-06-21T05:25:06.208Z,89.50
2018-06-21T05:27:37.274Z,89.00
2018-06-21T05:30:08.225Z,88.40
2018-06-21T05:32:38.856Z,88.70
2018-06-21T05:35:09.593Z,88.40
2018-06-21T05:37:40.326Z,86.80
2018-06-21T05:40:32.136Z,88.00
2018-06-21T05:43:03.538Z,87.50
2018-06-21T05:45:34.716Z,87.40
2018-06-21T05:48:05.969Z,87.00
2018-06-21T05:50:36.916Z,86.50
2018-06-21T05:53:08.640Z,85.90
2018-06-21T05:55:39.227Z,85.40
2018-06-21T05:58:39.741Z,85.80
2018-06-21T06:01:10.324Z,85.60
2018-06-21T06:03:40.855Z,84.60
2018-06-21T06:06:12.213Z,84.50
2018-06-21T06:08:42.772Z,84.20
2018-06-21T06:11:13.670Z,83.30
2018-06-21T06:13:44.740Z,83.00
2018-06-21T06:16:15.522Z,83.50
2018-06-21T06:18:46.448Z,82.30
2018-06-21T06:21:17.280Z,82.20
2018-06-21T06:23:47.825Z,82.30
2018-06-21T06:26:18.385Z,81.90
2018-06-21T06:28:49.068Z,82.70
2018-06-21T06:31:19.770Z,81.60
2018-06-21T06:33:50.815Z,81.60
2018-06-21T06:36:21.390Z,80.80
2018-06-21T06:41:22.407Z,81.00
2018-06-21T06:43:53.246Z,80.30
2018-06-21T06:46:23.912Z,79.70
2018-06-21T06:48:54.592Z,80.20
2018-06-21T06:51:25.212Z,80.60
2018-06-21T06:53:55.858Z,81.30
2018-06-21T06:56:26.622Z,80.90
2018-06-21T06:58:57.382Z,80.90
2018-06-21T07:01:28.081Z,80.30
2018-06-21T07:03:58.650Z,80.40
2018-06-21T07:06:29.320Z,79.80
2018-06-21T07:08:59.918Z,80.00
2018-06-21T07:11:30.436Z,80.00
2018-06-21T07:16:31.347Z,79.70
2018-06-21T07:19:02.295Z,79.20
2018-06-21T07:21:32.936Z,78.10
2018-06-21T07:24:03.540Z,78.20
2018-06-21T07:26:34.098Z,77.20
2018-06-21T07:29:04.728Z,77.50
2018-06-21T07:31:35.580Z,77.00
2018-06-21T07:34:06.279Z,78.00
2018-06-21T07:36:36.894Z,78.00
2018-06-21T07:39:10.350Z,78.10
2018-06-21T07:41:40.962Z,77.60
2018-06-21T07:44:11.561Z,76.90
2018-06-21T07:46:42.337Z,76.90
2018-06-21T07:49:12.903Z,76.10
2018-06-21T07:51:43.579Z,75.40
2018-06-21T07:54:14.146Z,73.40
2018-06-21T07:56:44.765Z,73.10
2018-06-21T07:59:15.377Z,73.40
2018-06-21T08:01:46.007Z,73.60
2018-06-21T08:04:16.699Z,72.70
2018-06-21T08:06:47.251Z,72.30
2018-06-21T08:09:17.849Z,72.30
2018-06-21T08:11:48.481Z,72.00
2018-06-21T08:14:19.199Z,72.00
2018-06-21T08:16:49.870Z,72.70
2018-06-21T08:19:20.485Z,71.80
2018-06-21T08:21:51.121Z,69.30
2018-06-21T08:24:21.735Z,70.70
2018-06-21T08:26:52.362Z,71.90
2018-06-21T08:31:53.163Z,68.70
2018-06-21T08:34:23.700Z,69.70
2018-06-21T08:36:54.645Z,68.60
2018-06-21T08:39:25.497Z,68.00
2018-06-21T08:41:56.053Z,68.10
2018-06-21T08:44:26.605Z,68.30
2018-06-21T08:46:57.185Z,66.20
2018-06-21T08:49:27.719Z,65.10
2018-06-21T08:54:28.457Z,63.30
2018-06-21T08:59:29.112Z,63.40
2018-06-21T09:04:29.761Z,63.10
2018-06-21T09:07:00.316Z,62.00
2018-06-21T09:09:30.910Z,62.90
2018-06-21T09:12:01.542Z,63.10
2018-06-21T09:17:02.263Z,62.30
2018-06-21T09:19:32.853Z,61.60
2018-06-21T09:22:03.433Z,59.90
2018-06-21T09:24:33.983Z,61.00
2018-06-21T09:32:05.198Z,63.70
2018-06-21T09:34:35.787Z,64.90
2018-06-21T09:37:06.678Z,66.90
2018-06-21T09:39:42.356Z,66.10
2018-06-21T09:44:26.883Z,66.50
2018-06-21T09:47:02.546Z,67.40
2018-06-21T09:49:34.323Z,68.80
2018-06-21T09:52:06.097Z,69.60
2018-06-21T09:54:37.143Z,70.00
2018-06-21T09:59:38.004Z,71.50
2018-06-21T10:02:08.580Z,72.60
2018-06-21T10:04:39.289Z,71.60
2018-06-21T10:07:09.945Z,69.50
2018-06-21T10:09:40.593Z,67.80
2018-06-21T10:12:11.218Z,69.30
2018-06-21T10:14:41.864Z,71.40
2018-06-21T10:19:42.867Z,73.90
2018-06-21T10:24:43.830Z,72.60
2018-06-21T10:27:14.463Z,67.50
2018-06-21T10:29:45.173Z,66.50
2018-06-21T10:32:15.814Z,67.80
2018-06-21T10:34:46.604Z,70.00
2018-06-21T10:37:17.431Z,68.70
2018-06-21T10:39:48.253Z,68.00
2018-06-21T10:42:18.920Z,64.30
2018-06-21T10:44:49.551Z,62.50
2018-06-21T10:47:20.199Z,60.10
2018-06-21T10:49:51.008Z,60.10
2018-06-21T10:52:21.585Z,61.10
2018-06-21T10:57:22.383Z,63.00
2018-06-21T10:59:53.079Z,62.30
2018-06-21T11:02:23.706Z,59.30
2018-06-21T11:07:24.452Z,59.30
2018-06-21T11:09:55.180Z,59.00
2018-06-21T11:17:26.060Z,57.10
2018-06-21T11:19:56.782Z,55.50
2018-06-21T11:24:57.647Z,53.40
2018-06-21T11:27:28.955Z,50.10
2018-06-21T11:29:59.601Z,47.50
2018-06-21T11:32:30.245Z,47.00
2018-06-21T11:35:00.866Z,44.20
2018-06-21T11:37:31.814Z,45.10
2018-06-21T11:40:02.421Z,45.10
2018-06-21T11:42:32.985Z,44.50
2018-06-21T11:45:03.770Z,45.90
2018-06-21T11:47:34.415Z,46.10
2018-06-21T11:50:05.060Z,46.00
2018-06-21T11:52:35.648Z,41.90
2018-06-21T11:55:06.264Z,42.90
2018-06-21T11:57:36.866Z,39.80
2018-06-21T12:02:37.813Z,37.90
2018-06-21T12:07:38.610Z,38.00
2018-06-21T12:10:09.217Z,38.30
2018-06-21T12:12:39.821Z,37.30
2018-06-21T12:15:10.516Z,36.10
2018-06-21T12:17:41.154Z,35.90
2018-06-21T12:20:11.774Z,36.30
2018-06-21T12:22:42.389Z,35.60
2018-06-21T12:25:12.998Z,36.70
2018-06-21T12:30:13.849Z,35.70
2018-06-21T12:35:14.688Z,36.30
2018-06-21T12:37:45.922Z,37.50
2018-06-21T12:40:16.561Z,36.70
2018-06-21T12:42:47.282Z,33.60
2018-06-21T12:45:17.928Z,31.60
2018-06-21T12:47:48.608Z,30.90
2018-06-21T12:50:19.214Z,31.60
2018-06-21T12:52:50.067Z,29.50
2018-06-21T12:55:20.701Z,29.80
2018-06-21T12:57:51.313Z,30.10
2018-06-21T13:00:21.877Z,30.20
2018-06-21T13:02:52.586Z,29.50
2018-06-21T13:05:23.229Z,28.80
2018-06-21T13:07:54.691Z,27.80
2018-06-21T13:10:42.222Z,28.90
2018-06-21T13:13:26.167Z,28.50
2018-06-21T13:15:56.810Z,29.10
2018-06-21T13:18:27.393Z,28.00
2018-06-21T13:20:58.040Z,28.40
2018-06-21T13:23:28.722Z,28.70
2018-06-21T13:25:59.270Z,29.90
2018-06-21T13:28:29.918Z,31.20
2018-06-21T13:31:00.582Z,30.30
2018-06-21T13:33:31.255Z,31.10
2018-06-21T13:36:01.797Z,30.30
2018-06-21T13:38:32.450Z,29.60
2018-06-21T13:41:03.021Z,27.70
2018-06-21T13:43:33.793Z,27.80
2018-06-21T13:48:34.894Z,30.50
2018-06-21T13:51:05.561Z,31.80
2018-06-21T13:53:36.176Z,32.40
2018-06-21T13:56:06.904Z,31.20
2018-06-21T13:58:37.562Z,31.20
2018-06-21T14:01:08.198Z,28.20
2018-06-21T14:03:39.598Z,30.10
2018-06-21T14:06:10.254Z,31.50
2018-06-21T14:08:40.939Z,31.70
2018-06-21T14:11:12.829Z,31.30
2018-06-21T14:13:43.485Z,32.60
2018-06-21T14:16:14.052Z,31.40
2018-06-21T14:21:14.933Z,31.50
2018-06-21T14:23:45.603Z,32.10
2018-06-21T14:26:16.251Z,32.90
2018-06-21T14:28:47.123Z,33.80
2018-06-21T14:31:17.814Z,33.40
2018-06-21T14:33:48.509Z,34.00
2018-06-21T14:36:19.198Z,35.00
2018-06-21T14:41:20.063Z,34.70
2018-06-21T14:43:50.672Z,33.80
2018-06-21T14:46:21.284Z,30.10
2018-06-21T14:48:51.958Z,29.90
2018-06-21T14:51:22.633Z,29.90
2018-06-21T14:53:53.255Z,33.20
2018-06-21T14:56:23.891Z,34.10
2018-06-21T14:58:54.478Z,34.00
2018-06-21T15:03:55.606Z,31.60
2018-06-21T15:06:26.647Z,29.50
2018-06-21T15:08:57.415Z,28.60
2018-06-21T15:11:28.285Z,29.80
2018-06-21T15:13:58.850Z,28.10
2018-06-21T15:16:29.882Z,28.90
2018-06-21T15:19:00.454Z,28.30
2018-06-21T15:24:01.245Z,27.80
2018-06-21T15:26:31.868Z,27.00
2018-06-21T15:29:02.454Z,26.50
2018-06-21T15:31:33.403Z,27.30
2018-06-21T15:36:34.211Z,28.50
2018-06-21T15:39:19.281Z,27.80
2018-06-21T15:41:50.117Z,28.00
2018-06-21T15:44:20.765Z,27.90
2018-06-21T15:46:51.537Z,27.60
2018-06-21T15:49:23.153Z,28.50
2018-06-21T15:51:53.817Z,28.50
2018-06-21T15:54:25.257Z,27.90
2018-06-21T15:59:25.899Z,26.90
2018-06-21T16:01:56.524Z,27.00
2018-06-21T16:04:27.054Z,26.90
2018-06-21T16:06:57.703Z,26.90
2018-06-21T16:11:58.362Z,27.40
2018-06-21T16:14:28.978Z,27.70
2018-06-21T16:19:29.721Z,26.60
2018-06-21T16:22:00.411Z,26.00
2018-06-21T16:24:31.058Z,26.00
2018-06-21T16:27:01.604Z,26.00
2018-06-21T16:29:32.134Z,25.80
2018-06-21T16:32:02.973Z,24.80
2018-06-21T16:34:33.566Z,24.80
2018-06-21T16:37:04.222Z,24.80
2018-06-21T16:39:34.750Z,25.20
2018-06-21T16:42:05.332Z,25.40
2018-06-21T16:44:35.900Z,25.60
2018-06-21T16:47:06.539Z,24.90
2018-06-21T16:49:37.092Z,25.80
2018-06-21T16:54:37.993Z,27.20
2018-06-21T16:57:08.514Z,27.50
2018-06-21T17:02:09.251Z,29.40
2018-06-21T17:04:39.747Z,30.30
2018-06-21T17:07:10.346Z,31.40
2018-06-21T17:09:40.857Z,31.90
2018-06-21T17:12:11.386Z,32.40
2018-06-21T17:14:41.913Z,32.40
2018-06-21T17:17:13.172Z,32.60
2018-06-21T17:19:44.484Z,33.40
2018-06-21T17:22:15.150Z,33.80
2018-06-21T17:24:45.816Z,33.60
2018-06-21T17:27:16.528Z,34.10
2018-06-21T17:29:47.114Z,34.50
2018-06-21T17:32:18.197Z,35.90
2018-06-21T17:34:48.953Z,37.30
2018-06-21T17:37:19.590Z,38.30
2018-06-21T17:39:50.223Z,39.50
2018-06-21T17:42:20.962Z,40.50
2018-06-21T17:44:51.585Z,41.20
2018-06-21T17:47:22.222Z,41.80
2018-06-21T17:49:52.855Z,42.20
2018-06-21T17:52:23.436Z,42.90
2018-06-21T17:54:54.261Z,43.50
2018-06-21T17:57:24.845Z,43.80
2018-06-21T17:59:55.497Z,44.50
2018-06-21T18:09:56.540Z,48.50
2018-06-21T18:12:27.172Z,49.10
2018-06-21T18:14:57.753Z,49.60
2018-06-21T18:17:30.457Z,50.10
2018-06-21T18:20:01.049Z,50.90
2018-06-21T18:22:31.746Z,51.80
2018-06-21T18:25:02.449Z,52.50
2018-06-21T18:27:33.125Z,52.90
2018-06-21T18:30:03.747Z,53.70
2018-06-21T18:32:34.774Z,54.00
2018-06-21T18:35:05.446Z,55.10
2018-06-21T18:37:36.103Z,55.50
2018-06-21T18:40:06.719Z,56.00
2018-06-21T18:45:08.803Z,57.50
2018-06-21T18:50:09.994Z,58.00
2018-06-21T18:52:40.713Z,58.30
2018-06-21T18:55:11.290Z,58.90
2018-06-21T18:57:41.926Z,59.50
2018-06-21T19:00:12.565Z,59.50
2018-06-21T19:02:43.343Z,59.60
2018-06-21T19:05:13.955Z,59.90
2018-06-21T19:11:21.752Z,61.20
2018-06-21T19:13:52.470Z,60.90
2018-06-21T19:18:53.223Z,61.70
2018-06-21T19:21:23.769Z,62.00
2018-06-21T19:23:54.806Z,62.80
2018-06-21T19:26:25.498Z,63.20
2018-06-21T19:28:56.136Z,63.70
2018-06-21T19:31:26.833Z,64.00
2018-06-21T19:33:57.710Z,64.40
2018-06-21T19:36:28.324Z,64.30
2018-06-21T19:38:58.932Z,64.60
2018-06-21T19:41:29.571Z,65.00
2018-06-21T19:46:31.146Z,66.00
2018-06-21T19:49:01.753Z,66.20
2018-06-21T19:51:32.306Z,66.30
2018-06-21T19:54:03.380Z,66.60
2018-06-21T19:56:33.951Z,66.50
2018-06-21T19:59:04.590Z,67.10
2018-06-21T20:01:35.198Z,67.70
2018-06-21T20:04:06.433Z,68.00
2018-06-21T20:06:37.380Z,68.60
2018-06-21T20:09:10.793Z,68.90
2018-06-21T20:11:41.524Z,69.10
2018-06-21T20:14:12.177Z,69.30
2018-06-21T20:19:15.269Z,70.10
2018-06-21T20:24:16.117Z,71.60
2018-06-21T20:26:47.714Z,71.20
2018-06-21T20:29:21.822Z,71.40
2018-06-21T20:31:53.257Z,71.50
2018-06-21T20:34:24.189Z,71.60
2018-06-21T20:39:24.889Z,72.20
2018-06-21T20:41:55.450Z,72.10
2018-06-21T20:44:26.039Z,72.80
2018-06-21T20:46:56.952Z,72.80
2018-06-21T20:49:27.556Z,72.60
2018-06-21T20:51:58.125Z,72.50
2018-06-21T20:54:28.754Z,72.50
2018-06-21T20:56:59.289Z,72.20
2018-06-21T20:59:29.917Z,72.70
2018-06-21T21:02:00.554Z,73.60
2018-06-21T21:05:14.618Z,73.50
2018-06-21T21:07:46.549Z,72.90
2018-06-21T21:10:18.209Z,73.20
2018-06-21T21:12:48.831Z,72.80
2018-06-21T21:15:19.478Z,72.90
2018-06-21T21:17:50.347Z,73.70
2018-06-21T21:20:20.981Z,73.80
2018-06-21T21:22:51.818Z,73.50
2018-06-21T21:25:22.421Z,72.90
2018-06-21T21:27:52.985Z,70.70
2018-06-21T21:30:23.495Z,58.40
2018-06-21T21:32:54.078Z,57.00
2018-06-21T21:37:55.042Z,56.80
2018-06-21T21:40:25.651Z,58.30
2018-06-21T21:42:56.248Z,61.00
2018-06-21T21:45:26.826Z,66.20
2018-06-21T21:47:57.656Z,67.80
2018-06-21T21:50:28.274Z,69.20
2018-06-21T21:52:58.842Z,72.00
2018-06-21T21:55:29.467Z,74.10
2018-06-21T21:58:00.094Z,74.90
2018-06-21T22:00:47.723Z,77.30
2018-06-21T22:03:18.353Z,79.10
2018-06-21T22:05:48.984Z,80.10
2018-06-21T22:08:19.580Z,81.20
2018-06-21T22:10:50.438Z,82.20
2018-06-21T22:13:21.062Z,83.60
2018-06-21T22:15:51.598Z,83.30
2018-06-21T22:18:22.247Z,84.60
2018-06-21T22:20:52.765Z,85.20
2018-06-21T22:23:23.430Z,86.10
2018-06-21T22:25:54.059Z,87.20
2018-06-21T22:28:26.892Z,87.60
2018-06-21T22:30:57.467Z,87.00
2018-06-21T22:33:28.061Z,88.10
2018-06-21T22:36:00.800Z,87.50
2018-06-21T22:38:31.407Z,87.90
2018-06-21T22:41:01.993Z,86.80
2018-06-21T22:43:32.583Z,88.30
2018-06-21T22:46:03.141Z,89.50
2018-06-21T22:48:33.658Z,90.00
2018-06-21T22:51:04.297Z,90.00
2018-06-21T22:53:34.832Z,90.10
2018-06-21T22:56:05.433Z,89.40
2018-06-21T22:58:36.026Z,89.10
2018-06-21T23:01:06.570Z,88.60
2018-06-21T23:03:37.118Z,88.10
2018-06-21T23:06:07.741Z,89.00
2018-06-21T23:08:38.283Z,90.20
2018-06-21T23:11:08.989Z,90.50
2018-06-21T23:13:39.549Z,90.40
2018-06-21T23:16:10.121Z,90.60
2018-06-21T23:21:21.758Z,91.40
2018-06-21T23:23:52.382Z,91.70
2018-06-21T23:26:22.921Z,91.70
2018-06-21T23:28:53.480Z,91.70
2018-06-21T23:31:24.831Z,91.70
2018-06-21T23:33:56.169Z,91.70
2018-06-21T23:36:26.723Z,91.70
2018-06-21T23:38:57.281Z,91.90
2018-06-21T23:41:27.840Z,92.10
2018-06-21T23:43:58.469Z,92.30
2018-06-21T23:46:29.141Z,92.20
2018-06-21T23:48:59.721Z,92.60
2018-06-21T23:51:30.333Z,92.40
2018-06-21T23:54:00.970Z,92.30
2018-06-21T23:56:31.613Z,91.90
2018-06-21T23:59:02.259Z,91.90
